aviador You're here:

YBWP Decoded Metar

WEIPA in AUSTRALIA
Report Time2017-08-22 09:00:00
UTC Time2017-08-22 09:11:37
Flight Rules vfr VFR
Wind070° at 09 kt
W.Decomp.*RWY 12: 5.0 kt HW 7.5 kt LCW
W.Rank070° ranks 9
Current wind is above 070° avg. (5.2)
Visibility9999 m
Phenomena:N/A
Clouds:N/A
Expected CloudBase > 5,600 ft AGL from Temp-Dew spread
CeilingNone
Temp28°C (ISA +13)
Dew Point14°C (42% RH)
Heat Index27.8°C
AAT26.0°C
QNH1013 hPa
Density Alt1,759 ft
Elevation39 ft
Report Wrong Elevation
Raw Report
METAR YBWP 220900Z AUTO 07009KT 9999 // NCD 28/14 Q1013=

Extra information for YBWP:More info

Metar Taf Metar & Taf Last 4 Metars F.Rules Stats Wind Profile Meteogram Temp Stats Airport Information Weather charts Add Link Nearby VenuesMetar ALERT Operation Metar Decoded Social comments